Time;durP1;ratioP1;P1;durP2;ratioP2;P2;SDS_P1;SDS_P2;PMS_P1;PMS_P2;Temp;Humidity;BMP_temperature;BMP_pressure;BME280_temperature;BME280_humidity;BME280_pressure;Samples;Min_cycle;Max_cycle;Signal;HPM_P1;HPM_P2
2022/01/15 00:01:25;;;;;;;;;;;;;;;4.32;68.01;102289.69;7356249;19;19915;-64
2022/01/15 00:03:51;;;;;;;;;;;;;;;4.32;68.37;102294.88;7363990;19;19992;-64
2022/01/15 00:06:16;;;;;;;;;;;;;;;4.30;68.07;102288.75;7358999;19;19922;-64
2022/01/15 00:08:41;;;;;;;;;;;;;;;4.27;68.52;102292.16;7357101;19;19918;-64
2022/01/15 00:11:06;;;;;;;;;;;;;;;4.25;68.32;102288.63;7364216;19;19919;-64
2022/01/15 00:13:32;;;;;;;;;;;;;;;4.23;68.28;102285.13;7355099;19;19915;-65
2022/01/15 00:16:10;;;;;;;;;;;;;;;4.22;68.55;102285.97;7357164;19;19974;-64
2022/01/15 00:18:48;;;;;;;;;;;;;;;4.21;68.70;102275.56;7360699;19;19953;-64
2022/01/15 00:21:14;;;;;;;;;;;;;;;4.19;68.30;102270.34;7358415;19;19943;-63
2022/01/15 00:23:40;;;;;;;;;;;;;;;4.17;68.43;102269.44;7363308;19;20819;-65
2022/01/15 00:26:05;;;;;;;;;;;;;;;4.16;68.48;102263.41;7361735;19;19927;-64
2022/01/15 00:28:31;;;;;;;;;;;;;;;4.15;68.35;102263.34;7362856;19;19934;-67
2022/01/15 00:30:56;;;;;;;;;;;;;;;4.14;68.69;102264.19;7361902;19;19919;-65
2022/01/15 00:33:21;;;;;;;;;;;;;;;4.13;68.45;102257.25;7361437;19;19906;-63
2022/01/15 00:35:46;;;;;;;;;;;;;;;4.12;68.30;102250.34;7364504;19;19950;-63
2022/01/15 00:38:12;;;;;;;;;;;;;;;4.10;68.60;102246.81;7359054;19;19926;-64
2022/01/15 00:40:37;;;;;;;;;;;;;;;4.09;68.87;102239.91;7359673;19;19935;-64
2022/01/15 00:43:02;;;;;;;;;;;;;;;4.06;68.61;102234.66;7363322;19;20336;-64
2022/01/15 00:45:32;;;;;;;;;;;;;;;4.05;68.89;102232.88;7357704;19;19915;-64
2022/01/15 00:47:58;;;;;;;;;;;;;;;4.04;68.59;102231.13;7360281;19;19915;-64
2022/01/15 00:50:23;;;;;;;;;;;;;;;4.02;68.55;102230.25;7358772;19;19915;-65
2022/01/15 00:52:49;;;;;;;;;;;;;;;4.02;68.78;102227.66;7353220;19;19929;-63
2022/01/15 00:55:15;;;;;;;;;;;;;;;4.01;68.73;102220.75;7358406;19;19931;-64
2022/01/15 00:57:40;;;;;;;;;;;;;;;4.00;68.49;102213.78;7357936;19;19943;-63
2022/01/15 01:00:07;;;;;;;;;;;;;;;3.98;68.76;102210.31;7363072;19;19974;-64
2022/01/15 01:02:32;;;;;;;;;;;;;;;3.96;68.61;102209.38;7361423;19;20804;-64
2022/01/15 01:04:58;;;;;;;;;;;;;;;3.95;68.92;102205.03;7369232;19;19928;-64
2022/01/15 01:07:23;;;;;;;;;;;;;;;3.90;68.70;102200.63;7369759;19;19918;-63
2022/01/15 01:12:32;;;;;;;;;;;;;;;3.86;68.58;102191.03;7365101;19;19915;-64
2022/01/15 01:21:27;;;;;;;;;;;;;;;3.79;68.84;102194.25;7367925;19;19922;-64
2022/01/15 01:23:13;;;;;;;;;;;;;;;3.78;69.21;102186.47;7366090;19;19994;-64
2022/01/15 01:25:43;;;;;;;;;;;;;;;3.77;69.08;102180.44;7368189;19;19919;-64
2022/01/15 01:28:13;;;;;;;;;;;;;;;3.76;69.19;102173.50;7369131;19;20005;-64
2022/01/15 01:30:48;;;;;;;;;;;;;;;3.75;69.00;102171.78;7364775;19;19930;-63
2022/01/15 01:36:01;;;;;;;;;;;;;;;3.72;69.38;102153.59;7365721;19;19926;-64
2022/01/15 01:38:35;;;;;;;;;;;;;;;3.70;68.95;102155.25;7368088;19;19998;-64
2022/01/15 01:41:01;;;;;;;;;;;;;;;3.68;68.93;102153.44;7367548;19;19918;-63
2022/01/15 01:46:11;;;;;;;;;;;;;;;3.65;69.36;102143.91;7363869;19;19914;-63
2022/01/15 01:48:36;;;;;;;;;;;;;;;3.64;68.72;102142.13;7369563;19;20010;-64
2022/01/15 01:51:02;;;;;;;;;;;;;;;3.61;68.88;102136.91;7368511;19;19926;-64
2022/01/15 01:53:27;;;;;;;;;;;;;;;3.60;68.92;102135.16;7365503;19;19918;-63
2022/01/15 01:55:53;;;;;;;;;;;;;;;3.58;69.00;102129.06;7364186;19;19926;-63
2022/01/15 01:58:18;;;;;;;;;;;;;;;3.58;69.17;102129.94;7368770;19;19929;-64
2022/01/15 02:00:43;;;;;;;;;;;;;;;3.61;69.24;102132.63;7367347;19;19911;-65
2022/01/15 02:03:08;;;;;;;;;;;;;;;3.66;69.46;102134.47;7365730;19;19910;-64
2022/01/15 02:05:34;;;;;;;;;;;;;;;3.70;69.72;102113.94;7366800;19;19926;-63
2022/01/15 02:07:59;;;;;;;;;;;;;;;3.76;69.77;102116.66;7367160;19;19926;-62
2022/01/15 02:10:25;;;;;;;;;;;;;;;3.83;69.87;102107.38;7365618;19;19931;-63
2022/01/15 02:12:51;;;;;;;;;;;;;;;3.89;69.88;102103.25;7368482;19;19918;-63
2022/01/15 02:15:18;;;;;;;;;;;;;;;4.00;69.94;102105.22;7364557;19;20006;-64
2022/01/15 02:17:45;;;;;;;;;;;;;;;4.07;70.14;102104.59;7365432;19;19918;-63
2022/01/15 02:25:59;;;;;;;;;;;;;;;4.32;70.06;102094.03;7365572;19;19952;-64
2022/01/15 02:28:25;;;;;;;;;;;;;;;4.40;70.48;102091.63;7266556;19;2004237;-64
2022/01/15 02:30:52;;;;;;;;;;;;;;;4.47;70.35;102083.19;7366213;19;19935;-64
2022/01/15 02:33:18;;;;;;;;;;;;;;;4.52;70.21;102081.59;7366567;19;19923;-64
2022/01/15 02:35:43;;;;;;;;;;;;;;;4.61;70.39;102078.34;7362349;19;20451;-64
2022/01/15 02:38:09;;;;;;;;;;;;;;;4.69;70.56;102079.41;7367663;19;19918;-64
2022/01/15 02:40:36;;;;;;;;;;;;;;;4.76;70.33;102076.09;7360549;19;20446;-64
2022/01/15 02:43:05;;;;;;;;;;;;;;;4.84;70.42;102069.41;7368586;19;19918;-63
2022/01/15 02:45:32;;;;;;;;;;;;;;;4.91;70.44;102060.94;7365829;19;19914;-64
2022/01/15 02:48:00;;;;;;;;;;;;;;;4.98;70.63;102056.78;7365041;19;20339;-64
2022/01/15 02:50:26;;;;;;;;;;;;;;;5.05;70.50;102057.78;7366642;19;20846;-63
2022/01/15 02:52:51;;;;;;;;;;;;;;;5.13;70.47;102054.53;7363456;19;19926;-64
2022/01/15 02:55:16;;;;;;;;;;;;;;;5.18;70.62;102049.44;7366604;19;19926;-63
2022/01/15 02:57:41;;;;;;;;;;;;;;;5.24;70.58;102049.56;7361890;19;19933;-64
2022/01/15 03:00:07;;;;;;;;;;;;;;;5.30;70.42;102044.50;7358205;19;19922;-64
2022/01/15 03:02:33;;;;;;;;;;;;;;;5.36;70.68;102042.03;7369941;19;19923;-64
2022/01/15 03:04:58;;;;;;;;;;;;;;;5.41;70.14;102037.81;7362823;19;19918;-64
2022/01/15 03:07:24;;;;;;;;;;;;;;;5.46;70.64;102033.59;7364877;19;20313;-64
2022/01/15 03:09:49;;;;;;;;;;;;;;;5.51;70.59;102036.28;7365802;19;19944;-64
2022/01/15 03:12:15;;;;;;;;;;;;;;;5.55;70.58;102025.13;7365325;19;19994;-64
2022/01/15 03:14:42;;;;;;;;;;;;;;;5.61;70.50;102024.38;7356972;19;19934;-62
2022/01/15 03:17:07;;;;;;;;;;;;;;;5.65;70.54;102026.19;7366502;19;20370;-64
2022/01/15 03:19:32;;;;;;;;;;;;;;;5.69;70.47;102023.69;7362159;19;20009;-64
2022/01/15 03:21:57;;;;;;;;;;;;;;;5.74;70.59;102021.19;7366179;19;20595;-64
2022/01/15 03:24:23;;;;;;;;;;;;;;;5.79;70.44;102018.69;7368938;19;21070;-64
2022/01/15 03:26:48;;;;;;;;;;;;;;;5.82;70.37;102011.81;7364375;19;19919;-64
2022/01/15 03:29:13;;;;;;;;;;;;;;;5.87;70.56;102011.91;7365738;19;19926;-64
2022/01/15 03:31:38;;;;;;;;;;;;;;;5.91;70.58;102013.69;7366207;19;19929;-65
2022/01/15 03:34:03;;;;;;;;;;;;;;;5.95;70.26;102015.53;7359230;19;20277;-63
2022/01/15 03:36:29;;;;;;;;;;;;;;;5.99;70.20;102012.16;7368845;19;19918;-64
2022/01/15 03:38:54;;;;;;;;;;;;;;;6.03;70.16;102007.88;7362250;19;19978;-64
2022/01/15 03:41:19;;;;;;;;;;;;;;;6.06;70.39;102008.81;7366421;19;19935;-64
2022/01/15 03:43:45;;;;;;;;;;;;;;;6.10;70.48;102007.16;7358667;19;19951;-64
2022/01/15 03:46:10;;;;;;;;;;;;;;;6.14;70.23;101996.84;7364708;19;19935;-64
2022/01/15 03:48:35;;;;;;;;;;;;;;;6.18;70.29;102000.34;7363628;19;19914;-64
2022/01/15 03:51:00;;;;;;;;;;;;;;;6.22;70.50;101989.19;7365966;19;20084;-64
2022/01/15 03:53:26;;;;;;;;;;;;;;;6.24;70.05;101998.75;7364699;19;20005;-64
2022/01/15 03:55:51;;;;;;;;;;;;;;;6.28;70.38;101994.47;7366941;19;19906;-65
2022/01/15 03:58:17;;;;;;;;;;;;;;;6.31;70.39;101986.72;7363932;19;19922;-64
2022/01/15 04:00:42;;;;;;;;;;;;;;;6.32;69.99;101980.69;7364653;19;19926;-63
2022/01/15 04:03:08;;;;;;;;;;;;;;;6.35;70.27;101985.06;7365500;19;19937;-64
2022/01/15 04:05:33;;;;;;;;;;;;;;;6.36;70.35;101987.69;7361313;19;19922;-64
2022/01/15 04:07:58;;;;;;;;;;;;;;;6.37;70.00;101979.03;7361233;19;19930;-64
2022/01/15 04:10:24;;;;;;;;;;;;;;;6.38;70.26;101978.19;7365973;19;19923;-63
2022/01/15 04:12:49;;;;;;;;;;;;;;;6.40;70.05;101975.63;7361385;19;19926;-64
2022/01/15 04:15:16;;;;;;;;;;;;;;;6.40;70.08;101968.72;7364619;19;19968;-64
2022/01/15 04:17:42;;;;;;;;;;;;;;;6.42;69.92;101960.94;7357793;19;20359;-63
2022/01/15 04:20:08;;;;;;;;;;;;;;;6.33;70.18;101946.09;7362059;19;19921;-63
2022/01/15 04:22:33;;;;;;;;;;;;;;;6.44;69.91;101960.13;7361603;19;19935;-63
2022/01/15 04:24:58;;;;;;;;;;;;;;;6.45;70.13;101946.31;7363453;19;19992;-64
2022/01/15 04:27:23;;;;;;;;;;;;;;;6.46;69.88;101945.44;7365301;19;19918;-64
2022/01/15 04:29:49;;;;;;;;;;;;;;;6.46;70.10;101942.84;7363410;19;19923;-63
2022/01/15 04:32:15;;;;;;;;;;;;;;;6.46;70.23;101937.66;7347029;19;19926;-64
2022/01/15 04:34:40;;;;;;;;;;;;;;;6.46;70.30;101932.47;7364020;19;20303;-64
2022/01/15 04:37:16;;;;;;;;;;;;;;;6.47;70.39;101931.63;7365155;19;19911;-64
2022/01/15 04:39:42;;;;;;;;;;;;;;;6.48;70.12;101920.38;7370378;19;19926;-64
2022/01/15 04:42:08;;;;;;;;;;;;;;;6.50;70.36;101923.88;7368012;19;19922;-64
2022/01/15 04:44:33;;;;;;;;;;;;;;;6.53;70.44;101927.38;7369080;19;19951;-64
2022/01/15 04:46:59;;;;;;;;;;;;;;;6.56;70.27;101917.03;7371242;19;19915;-64
2022/01/15 04:49:24;;;;;;;;;;;;;;;6.57;70.11;101923.97;7370054;19;19915;-63
2022/01/15 04:51:50;;;;;;;;;;;;;;;6.58;70.07;101925.69;7370881;19;19926;-64
2022/01/15 04:54:15;;;;;;;;;;;;;;;6.59;70.23;101923.16;7371229;19;19926;-64
2022/01/15 04:56:40;;;;;;;;;;;;;;;6.60;70.29;101924.00;7370117;19;19921;-64
2022/01/15 04:59:06;;;;;;;;;;;;;;;6.62;70.20;101917.09;7366908;19;19942;-64
2022/01/15 05:01:31;;;;;;;;;;;;;;;6.63;70.40;101921.44;7366227;19;19922;-64
2022/01/15 05:03:56;;;;;;;;;;;;;;;6.64;70.09;101918.88;7372392;19;20667;-64
2022/01/15 05:06:22;;;;;;;;;;;;;;;6.66;70.43;101908.53;7364904;19;20032;-65
2022/01/15 05:08:51;;;;;;;;;;;;;;;6.67;70.16;101910.25;7371459;19;19919;-65
2022/01/15 05:11:30;;;;;;;;;;;;;;;6.69;70.40;101905.94;7364282;19;19921;-64
2022/01/15 05:13:55;;;;;;;;;;;;;;;6.70;70.42;101910.31;7369907;19;19923;-64
2022/01/15 05:16:21;;;;;;;;;;;;;;;6.71;70.29;101904.25;7371126;19;19949;-64
2022/01/15 05:18:46;;;;;;;;;;;;;;;6.71;70.28;101897.34;7363311;19;19918;-64
2022/01/15 05:21:11;;;;;;;;;;;;;;;6.74;70.44;101896.47;7370502;19;19919;-64
2022/01/15 05:23:36;;;;;;;;;;;;;;;6.73;70.05;101894.75;7343345;19;20001;-64
2022/01/15 05:26:02;;;;;;;;;;;;;;;6.75;70.51;101887.88;7369733;19;20021;-64
2022/01/15 05:28:27;;;;;;;;;;;;;;;6.75;70.15;101883.53;7369518;19;19923;-64
2022/01/15 05:30:52;;;;;;;;;;;;;;;6.77;70.12;101886.16;7367128;19;19943;-63
2022/01/15 05:33:18;;;;;;;;;;;;;;;6.78;70.22;101881.81;7366356;19;19918;-64
2022/01/15 05:35:43;;;;;;;;;;;;;;;6.73;70.43;101884.38;7365179;19;19945;-64
2022/01/15 05:38:08;;;;;;;;;;;;;;;6.80;70.45;101890.53;7370015;19;19995;-64
2022/01/15 05:40:34;;;;;;;;;;;;;;;6.81;70.34;101892.25;7365096;19;19918;-64
2022/01/15 05:42:59;;;;;;;;;;;;;;;6.81;70.28;101887.94;7365492;19;19926;-64
2022/01/15 05:45:24;;;;;;;;;;;;;;;6.84;70.38;101887.09;7368743;19;19926;-63
2022/01/15 05:47:50;;;;;;;;;;;;;;;6.84;70.47;101892.28;7365076;19;19919;-64
2022/01/15 05:50:15;;;;;;;;;;;;;;;6.85;70.40;101889.72;7365055;19;19918;-63
2022/01/15 05:52:41;;;;;;;;;;;;;;;6.87;70.75;101881.94;7370541;19;19927;-64
2022/01/15 05:55:06;;;;;;;;;;;;;;;6.88;70.63;101878.47;7364209;19;19950;-64
2022/01/15 05:57:32;;;;;;;;;;;;;;;6.92;70.33;101880.25;7371975;19;19958;-64
2022/01/15 05:59:57;;;;;;;;;;;;;;;6.93;70.59;101872.47;7367798;19;20397;-64
2022/01/15 06:02:22;;;;;;;;;;;;;;;6.95;70.53;101869.94;7365915;19;19911;-65
2022/01/15 06:04:48;;;;;;;;;;;;;;;6.96;70.78;101869.94;7365146;19;19934;-64
2022/01/15 06:07:14;;;;;;;;;;;;;;;6.97;70.69;101866.47;7366049;19;19914;-64
2022/01/15 06:09:39;;;;;;;;;;;;;;;6.99;70.67;101867.38;7368582;19;19922;-63
2022/01/15 06:12:04;;;;;;;;;;;;;;;6.99;70.48;101864.78;7356308;19;19918;-65
2022/01/15 06:14:30;;;;;;;;;;;;;;;7.01;70.25;101870.84;7363105;19;19939;-63
2022/01/15 06:16:56;;;;;;;;;;;;;;;7.02;70.54;101867.41;7369662;19;19923;-64
2022/01/15 06:19:21;;;;;;;;;;;;;;;7.03;70.52;101857.88;7364090;19;19925;-65
2022/01/15 06:21:47;;;;;;;;;;;;;;;7.05;70.49;101860.50;7366638;19;19923;-65
2022/01/15 06:24:12;;;;;;;;;;;;;;;7.05;70.41;101850.13;7369895;19;19922;-64
2022/01/15 06:26:37;;;;;;;;;;;;;;;7.06;70.65;101846.66;7366288;19;19906;-63
2022/01/15 06:29:02;;;;;;;;;;;;;;;7.09;70.66;101851.88;7364697;19;19923;-64
2022/01/15 06:31:30;;;;;;;;;;;;;;;7.09;70.40;101841.47;7367355;19;19949;-63
2022/01/15 06:33:56;;;;;;;;;;;;;;;7.09;70.42;101838.88;7367834;19;20770;-63
2022/01/15 06:36:21;;;;;;;;;;;;;;;7.11;70.48;101834.59;7366689;19;19926;-64
2022/01/15 06:38:47;;;;;;;;;;;;;;;7.12;70.79;101826.81;7363665;19;19922;-64
2022/01/15 06:41:12;;;;;;;;;;;;;;;7.14;70.59;101830.28;7367543;19;19925;-64
2022/01/15 06:43:37;;;;;;;;;;;;;;;7.15;70.55;101821.66;7366284;19;20301;-63
2022/01/15 06:46:03;;;;;;;;;;;;;;;7.16;70.73;101820.78;7366365;19;20016;-64
2022/01/15 06:48:30;;;;;;;;;;;;;;;7.18;70.57;101816.47;7368815;19;19940;-64
2022/01/15 06:50:55;;;;;;;;;;;;;;;7.21;70.69;101807.84;7361261;19;19915;-65
2022/01/15 06:53:20;;;;;;;;;;;;;;;7.22;70.58;101807.84;7367063;19;19919;-63
2022/01/15 06:55:49;;;;;;;;;;;;;;;7.24;70.97;101800.06;7368917;19;19928;-64
2022/01/15 06:58:14;;;;;;;;;;;;;;;7.25;70.74;101794.03;7367400;19;19918;-65
2022/01/15 07:00:39;;;;;;;;;;;;;;;7.29;70.86;101793.16;7357252;19;19955;-64
2022/01/15 07:03:05;;;;;;;;;;;;;;;7.32;70.73;101784.56;7365886;19;19918;-64
2022/01/15 07:05:30;;;;;;;;;;;;;;;7.35;71.13;101788.06;7365107;19;20263;-64
2022/01/15 07:07:56;;;;;;;;;;;;;;;7.34;71.16;101765.50;7365904;19;19956;-64
2022/01/15 07:10:21;;;;;;;;;;;;;;;7.43;70.74;101781.16;7366880;19;19915;-63
2022/01/15 07:12:47;;;;;;;;;;;;;;;7.47;70.79;101776.88;7364991;19;19914;-63
2022/01/15 07:15:12;;;;;;;;;;;;;;;7.52;70.95;101780.38;7363083;19;20486;-63
2022/01/15 07:17:41;;;;;;;;;;;;;;;7.55;71.12;101759.59;7365190;19;20474;-63
2022/01/15 07:20:07;;;;;;;;;;;;;;;7.60;71.39;101762.22;7365739;19;19926;-63
2022/01/15 07:22:32;;;;;;;;;;;;;;;7.62;70.88;101760.50;7367090;19;19915;-64
2022/01/15 07:24:57;;;;;;;;;;;;;;;7.66;71.17;101759.69;7358431;19;20761;-64
2022/01/15 07:27:23;;;;;;;;;;;;;;;7.68;71.07;101745.81;7362400;19;19919;-65
2022/01/15 07:29:48;;;;;;;;;;;;;;;7.73;70.90;101748.44;7362051;19;19947;-64
2022/01/15 07:32:13;;;;;;;;;;;;;;;7.76;71.17;101758.88;7365291;19;20538;-63
2022/01/15 07:34:39;;;;;;;;;;;;;;;7.79;71.54;101756.28;7364128;19;19915;-64
2022/01/15 07:37:04;;;;;;;;;;;;;;;7.82;71.17;101748.50;7365645;19;19932;-63
2022/01/15 07:39:29;;;;;;;;;;;;;;;7.85;71.16;101756.31;7366694;19;19932;-63
2022/01/15 07:41:56;;;;;;;;;;;;;;;7.87;71.23;101746.78;7361571;19;19951;-64
2022/01/15 07:44:21;;;;;;;;;;;;;;;7.90;71.30;101752.00;7360985;19;19926;-64
2022/01/15 07:46:46;;;;;;;;;;;;;;;7.92;71.26;101750.28;7361052;19;19959;-64
2022/01/15 07:49:12;;;;;;;;;;;;;;;7.93;71.31;101744.22;7361707;19;19935;-63
2022/01/15 07:51:37;;;;;;;;;;;;;;;7.96;71.16;101741.66;7357998;19;19922;-64
2022/01/15 07:54:02;;;;;;;;;;;;;;;7.98;71.06;101745.09;7365193;19;20338;-63
2022/01/15 07:56:28;;;;;;;;;;;;;;;8.01;71.09;101744.28;7359440;19;20590;-64
2022/01/15 07:58:53;;;;;;;;;;;;;;;8.02;71.46;101746.88;7357712;19;19970;-64
2022/01/15 08:01:18;;;;;;;;;;;;;;;8.03;71.21;101748.59;7356901;19;20352;-63
2022/01/15 08:03:44;;;;;;;;;;;;;;;8.05;71.65;101752.06;7355523;19;19925;-64
2022/01/15 08:06:10;;;;;;;;;;;;;;;8.06;71.14;101748.63;7364670;19;19914;-65
2022/01/15 08:08:35;;;;;;;;;;;;;;;8.05;71.42;101746.88;7361051;19;19919;-63
2022/01/15 08:11:01;;;;;;;;;;;;;;;8.05;71.26;101746.88;7356104;19;19922;-64
2022/01/15 08:13:26;;;;;;;;;;;;;;;8.04;71.58;101750.34;7359663;19;19935;-64
2022/01/15 08:15:52;;;;;;;;;;;;;;;8.05;71.17;101752.06;7350782;19;19994;-62
2022/01/15 08:18:18;;;;;;;;;;;;;;;8.04;71.14;101758.13;7355282;19;19938;-64
2022/01/15 08:20:44;;;;;;;;;;;;;;;8.03;71.38;101752.94;7360561;19;19927;-64
2022/01/15 08:23:09;;;;;;;;;;;;;;;8.02;71.19;101754.66;7355313;19;19990;-63
2022/01/15 08:25:34;;;;;;;;;;;;;;;8.00;71.44;101758.97;7363403;19;19914;-64
2022/01/15 08:28:01;;;;;;;;;;;;;;;8.00;71.30;101761.56;7362047;19;19918;-65
2022/01/15 08:30:26;;;;;;;;;;;;;;;7.99;71.22;101751.19;7358361;19;19918;-64
2022/01/15 08:32:52;;;;;;;;;;;;;;;7.98;70.96;101750.31;7358991;19;19933;-64
2022/01/15 08:35:17;;;;;;;;;;;;;;;7.97;71.29;101753.78;7360243;19;19919;-65
2022/01/15 08:37:43;;;;;;;;;;;;;;;7.98;71.17;101750.31;7361092;19;19922;-64
2022/01/15 08:40:10;;;;;;;;;;;;;;;7.97;71.34;101748.59;7352061;19;19930;-64
2022/01/15 08:42:36;;;;;;;;;;;;;;;7.98;71.08;101746.84;7355486;19;19923;-64
2022/01/15 08:45:01;;;;;;;;;;;;;;;7.98;71.17;101741.66;7362495;19;19915;-63
2022/01/15 08:47:27;;;;;;;;;;;;;;;7.96;71.34;101744.25;7360756;19;19914;-64
2022/01/15 08:49:53;;;;;;;;;;;;;;;7.97;71.21;101745.97;7363911;19;19923;-65
2022/01/15 08:52:18;;;;;;;;;;;;;;;7.99;71.26;101751.19;7357489;19;19918;-64
2022/01/15 08:54:43;;;;;;;;;;;;;;;7.99;71.42;101745.97;7359620;19;20010;-63
2022/01/15 08:57:09;;;;;;;;;;;;;;;7.98;71.21;101742.50;7363091;19;19918;-65
2022/01/15 08:59:34;;;;;;;;;;;;;;;7.99;71.42;101752.03;7360101;19;19998;-63
2022/01/15 09:01:59;;;;;;;;;;;;;;;7.99;71.30;101749.44;7361002;19;19925;-64
2022/01/15 09:04:25;;;;;;;;;;;;;;;7.99;71.56;101746.84;7360022;19;19954;-64
2022/01/15 09:06:50;;;;;;;;;;;;;;;8.01;71.47;101749.47;7361625;19;19930;-64
2022/01/15 09:09:16;;;;;;;;;;;;;;;8.02;71.34;101756.41;7356753;19;19933;-63
2022/01/15 09:11:41;;;;;;;;;;;;;;;8.02;71.19;101757.28;7357009;19;21244;-64
2022/01/15 09:14:07;;;;;;;;;;;;;;;8.02;71.62;101751.22;7359573;19;19922;-65
2022/01/15 09:16:32;;;;;;;;;;;;;;;8.03;71.44;101759.00;7357415;19;19927;-65
2022/01/15 09:18:57;;;;;;;;;;;;;;;8.02;71.25;101754.66;7359443;19;19928;-64
2022/01/15 09:21:25;;;;;;;;;;;;;;;7.99;71.30;101748.56;7355608;19;21005;-65
2022/01/15 09:23:51;;;;;;;;;;;;;;;8.04;71.32;101754.66;7361525;19;19915;-64
2022/01/15 09:26:23;;;;;;;;;;;;;;;8.04;71.76;101758.13;7366704;19;19922;-64
2022/01/15 09:31:34;;;;;;;;;;;;;;;8.05;71.27;101749.47;7363554;19;19922;-63
2022/01/15 09:33:59;;;;;;;;;;;;;;;8.07;71.37;101750.34;7360159;19;19935;-63
2022/01/15 09:36:25;;;;;;;;;;;;;;;8.09;71.42;101752.97;7368234;19;20283;-64
2022/01/15 09:38:50;;;;;;;;;;;;;;;8.11;71.38;101746.06;7364151;19;19966;-63
2022/01/15 09:41:16;;;;;;;;;;;;;;;8.13;71.56;101746.03;7364474;19;19917;-64
2022/01/15 09:43:42;;;;;;;;;;;;;;;8.15;71.57;101746.91;7368196;19;20363;-64
2022/01/15 09:46:09;;;;;;;;;;;;;;;8.18;71.66;101741.72;7364827;19;20011;-63
2022/01/15 09:48:38;;;;;;;;;;;;;;;8.19;71.67;101748.66;7368804;19;20431;-64
2022/01/15 09:51:03;;;;;;;;;;;;;;;8.23;71.42;101745.22;7365425;19;19919;-64
2022/01/15 09:53:29;;;;;;;;;;;;;;;8.23;71.36;101742.63;7367402;19;19914;-64
2022/01/15 09:55:54;;;;;;;;;;;;;;;8.25;71.66;101739.13;7366271;19;20370;-64
2022/01/15 09:58:20;;;;;;;;;;;;;;;8.28;71.71;101735.69;7369471;19;20623;-63
2022/01/15 10:00:46;;;;;;;;;;;;;;;8.29;71.76;101725.28;7367863;19;19926;-65
2022/01/15 10:03:11;;;;;;;;;;;;;;;8.33;71.88;101726.16;7367197;19;19925;-64
2022/01/15 10:05:37;;;;;;;;;;;;;;;8.35;71.46;101731.38;7365657;19;19969;-65
2022/01/15 10:08:04;;;;;;;;;;;;;;;8.37;71.70;101727.09;7364602;19;19934;-64
2022/01/15 10:10:31;;;;;;;;;;;;;;;8.39;72.02;101731.41;7360322;19;19931;-64
2022/01/15 10:13:10;;;;;;;;;;;;;;;8.41;71.64;101729.66;7367182;19;19918;-64
2022/01/15 10:15:35;;;;;;;;;;;;;;;8.45;71.72;101723.63;7364943;19;20613;-64
2022/01/15 10:18:00;;;;;;;;;;;;;;;8.46;71.93;101722.75;7367807;19;19918;-64
2022/01/15 10:20:34;;;;;;;;;;;;;;;8.49;71.76;101717.56;7364150;19;20617;-63
2022/01/15 10:23:01;;;;;;;;;;;;;;;8.53;72.01;101719.31;7362463;19;19930;-64
2022/01/15 10:25:26;;;;;;;;;;;;;;;8.57;72.13;101718.47;7364435;19;20639;-63
2022/01/15 10:27:53;;;;;;;;;;;;;;;8.62;72.14;101712.38;7362690;19;19915;-65
2022/01/15 10:30:20;;;;;;;;;;;;;;;8.66;72.18;101708.91;7360968;19;19934;-63
2022/01/15 10:32:55;;;;;;;;;;;;;;;8.69;71.74;101701.97;7357755;19;19911;-63
2022/01/15 10:35:22;;;;;;;;;;;;;;;8.76;72.04;101702.84;7359308;19;19994;-64
2022/01/15 10:37:49;;;;;;;;;;;;;;;8.79;71.82;101697.66;7363181;19;20555;-63
2022/01/15 10:40:15;;;;;;;;;;;;;;;8.86;71.85;101701.97;7361758;19;19926;-64
2022/01/15 10:42:40;;;;;;;;;;;;;;;8.90;72.00;101703.72;7361729;19;19958;-64
2022/01/15 10:45:11;;;;;;;;;;;;;;;8.94;72.14;101705.47;7360757;19;19919;-64
2022/01/15 10:47:46;;;;;;;;;;;;;;;9.00;72.17;101700.25;7361952;19;19926;-65
2022/01/15 10:50:38;;;;;;;;;;;;;;;9.05;71.95;101703.72;7361258;19;20343;-65
2022/01/15 10:53:08;;;;;;;;;;;;;;;9.12;72.31;101701.09;7254316;19;2004224;-65
2022/01/15 10:55:34;;;;;;;;;;;;;;;9.18;71.98;101698.53;7365954;19;21673;-63
2022/01/15 10:58:01;;;;;;;;;;;;;;;9.25;71.87;101695.03;7364802;19;19930;-64
2022/01/15 11:00:35;;;;;;;;;;;;;;;9.31;71.98;101697.63;7364626;19;19926;-63
2022/01/15 11:03:01;;;;;;;;;;;;;;;9.38;71.89;101701.97;7359274;19;19927;-63
2022/01/15 11:05:33;;;;;;;;;;;;;;;9.44;71.65;101707.16;7348173;19;20271;-63
2022/01/15 11:08:17;;;;;;;;;;;;;;;9.48;71.84;101703.69;7367410;19;19978;-63
2022/01/15 11:10:42;;;;;;;;;;;;;;;9.52;71.66;101700.16;7363307;19;20445;-63
2022/01/15 11:13:11;;;;;;;;;;;;;;;9.56;71.77;101698.44;7366596;19;19919;-63
2022/01/15 11:15:36;;;;;;;;;;;;;;;9.57;71.48;101698.41;7355912;19;19915;-61
2022/01/15 11:18:03;;;;;;;;;;;;;;;9.59;71.44;101696.69;7363327;19;19918;-63
2022/01/15 11:20:30;;;;;;;;;;;;;;;9.60;71.51;101695.81;7364148;19;20650;-63
2022/01/15 11:22:56;;;;;;;;;;;;;;;9.62;71.52;101690.59;7362160;19;20018;-62
2022/01/15 11:25:21;;;;;;;;;;;;;;;9.63;71.70;101692.34;7364781;19;19930;-63
2022/01/15 11:27:46;;;;;;;;;;;;;;;9.65;71.21;101689.72;7363633;19;20012;-64
2022/01/15 11:30:12;;;;;;;;;;;;;;;9.67;71.50;101693.19;7363311;19;19978;-63
2022/01/15 11:32:41;;;;;;;;;;;;;;;9.69;71.19;101692.31;7363472;19;19940;-63
2022/01/15 11:35:07;;;;;;;;;;;;;;;9.69;71.65;101687.09;7363120;19;20313;-63
2022/01/15 11:37:53;;;;;;;;;;;;;;;9.71;71.33;101687.09;7362901;19;19923;-63
2022/01/15 11:40:34;;;;;;;;;;;;;;;9.73;71.63;101682.72;7261175;19;2004263;-63
2022/01/15 11:43:18;;;;;;;;;;;;;;;9.76;71.46;101687.94;7348715;19;19927;-63
2022/01/15 11:45:43;;;;;;;;;;;;;;;9.78;71.22;101680.97;7359241;19;20423;-63
2022/01/15 11:48:28;;;;;;;;;;;;;;;9.82;71.50;101682.69;7364437;19;19953;-63
2022/01/15 11:51:12;;;;;;;;;;;;;;;9.85;71.72;101672.25;7358251;19;19918;-64
2022/01/15 11:53:43;;;;;;;;;;;;;;;9.88;71.19;101667.91;7363921;19;19922;-63
2022/01/15 11:56:19;;;;;;;;;;;;;;;9.93;71.75;101670.47;7363677;19;19981;-63
2022/01/15 11:58:45;;;;;;;;;;;;;;;9.97;71.24;101664.38;7363629;19;19930;-63
2022/01/15 12:01:29;;;;;;;;;;;;;;;10.00;71.62;101659.16;7357996;19;19915;-63
2022/01/15 12:04:14;;;;;;;;;;;;;;;10.04;71.27;101658.25;7366117;19;19923;-64
2022/01/15 12:06:58;;;;;;;;;;;;;;;10.08;71.60;101654.72;7362446;19;19918;-64
2022/01/15 12:09:38;;;;;;;;;;;;;;;10.12;71.29;101653.84;7365132;19;19915;-63
2022/01/15 12:14:58;;;;;;;;;;;;;;;10.22;71.09;101646.84;7360395;19;19919;-63
2022/01/15 12:17:36;;;;;;;;;;;;;;;10.28;71.20;101645.97;7364680;19;21202;-63
2022/01/15 12:20:25;;;;;;;;;;;;;;;10.30;71.32;101647.69;7359667;19;19967;-63
2022/01/15 12:22:52;;;;;;;;;;;;;;;10.32;70.81;101643.31;7352903;19;19938;-62
2022/01/15 12:25:17;;;;;;;;;;;;;;;10.35;71.10;101639.84;7357008;19;19918;-63
2022/01/15 12:28:03;;;;;;;;;;;;;;;10.37;70.91;101635.47;7363447;19;19957;-63
2022/01/15 12:30:40;;;;;;;;;;;;;;;10.35;70.91;101637.22;7359110;19;19942;-63
2022/01/15 12:33:06;;;;;;;;;;;;;;;10.33;70.50;101636.34;7359851;19;19923;-63
2022/01/15 12:35:32;;;;;;;;;;;;;;;10.36;70.26;101638.97;7363599;19;19911;-63
2022/01/15 12:38:06;;;;;;;;;;;;;;;10.35;70.38;101634.63;7359826;19;19937;-63
2022/01/15 12:40:31;;;;;;;;;;;;;;;10.34;70.40;101640.69;7358742;19;19918;-63
2022/01/15 12:43:01;;;;;;;;;;;;;;;10.33;70.47;101629.38;7361375;19;19923;-62
2022/01/15 12:45:27;;;;;;;;;;;;;;;10.33;70.41;101618.09;7358883;19;19948;-63
2022/01/15 12:47:53;;;;;;;;;;;;;;;10.31;70.40;101619.84;7364763;19;19950;-63
2022/01/15 12:50:18;;;;;;;;;;;;;;;10.30;70.01;101618.97;7353922;19;20616;-63
2022/01/15 12:52:44;;;;;;;;;;;;;;;10.31;70.49;101609.41;7363775;19;19951;-63
2022/01/15 12:55:09;;;;;;;;;;;;;;;10.32;70.47;101616.34;7363347;19;19964;-63
2022/01/15 12:57:43;;;;;;;;;;;;;;;10.31;70.34;101615.50;7357821;19;19965;-62
2022/01/15 13:00:12;;;;;;;;;;;;;;;10.33;70.40;101618.09;7364463;19;19922;-64
2022/01/15 13:02:38;;;;;;;;;;;;;;;10.34;70.04;101614.59;7360952;19;19930;-64
2022/01/15 13:05:03;;;;;;;;;;;;;;;10.35;70.29;101605.91;7362649;19;19968;-63
2022/01/15 13:07:45;;;;;;;;;;;;;;;10.36;70.08;101618.06;7366047;19;19955;-63
2022/01/15 13:10:23;;;;;;;;;;;;;;;10.38;70.19;101605.84;7368010;19;19933;-63